sensor_id;sensor_type;location;lat;lon;timestamp;temperature;humidity
76787;DHT22;65739;51.482;5.702;2023-03-11T00:01:24;1.00;99.90
76787;DHT22;65739;51.482;5.702;2023-03-11T00:03:53;1.00;99.90
76787;DHT22;65739;51.482;5.702;2023-03-11T00:06:21;1.00;99.90
76787;DHT22;65739;51.482;5.702;2023-03-11T00:08:50;1.00;99.90
76787;DHT22;65739;51.482;5.702;2023-03-11T00:11:20;1.00;99.90
76787;DHT22;65739;51.482;5.702;2023-03-11T00:14:09;0.90;99.90
76787;DHT22;65739;51.482;5.702;2023-03-11T00:16:37;0.90;99.90
76787;DHT22;65739;51.482;5.702;2023-03-11T00:19:03;0.80;99.90
76787;DHT22;65739;51.482;5.702;2023-03-11T00:21:38;0.80;99.90
76787;DHT22;65739;51.482;5.702;2023-03-11T00:24:34;0.60;99.90
76787;DHT22;65739;51.482;5.702;2023-03-11T00:27:00;0.50;99.90
76787;DHT22;65739;51.482;5.702;2023-03-11T00:29:27;0.40;99.90
76787;DHT22;65739;51.482;5.702;2023-03-11T00:32:00;0.30;99.90
76787;DHT22;65739;51.482;5.702;2023-03-11T00:34:26;0.30;99.90
76787;DHT22;65739;51.482;5.702;2023-03-11T00:37:03;0.20;99.90
76787;DHT22;65739;51.482;5.702;2023-03-11T00:39:29;0.20;99.90
76787;DHT22;65739;51.482;5.702;2023-03-11T00:42:07;0.20;99.90
76787;DHT22;65739;51.482;5.702;2023-03-11T00:44:41;0.10;99.90
76787;DHT22;65739;51.482;5.702;2023-03-11T00:47:21;0.10;99.90
76787;DHT22;65739;51.482;5.702;2023-03-11T00:49:50;0.10;99.90
76787;DHT22;65739;51.482;5.702;2023-03-11T00:52:19;0.10;99.90
76787;DHT22;65739;51.482;5.702;2023-03-11T00:54:45;0.10;99.90
76787;DHT22;65739;51.482;5.702;2023-03-11T00:57:13;0.00;99.90
76787;DHT22;65739;51.482;5.702;2023-03-11T00:59:39;0.00;99.90
76787;DHT22;65739;51.482;5.702;2023-03-11T01:02:17;-0.10;99.90
76787;DHT22;65739;51.482;5.702;2023-03-11T01:04:46;-0.20;99.90
76787;DHT22;65739;51.482;5.702;2023-03-11T01:07:15;-0.30;99.90
76787;DHT22;65739;51.482;5.702;2023-03-11T01:09:41;-0.20;99.90
76787;DHT22;65739;51.482;5.702;2023-03-11T01:12:09;-0.20;99.90
76787;DHT22;65739;51.482;5.702;2023-03-11T01:14:59;-0.20;99.90
76787;DHT22;65739;51.482;5.702;2023-03-11T01:17:31;-0.10;99.90
76787;DHT22;65739;51.482;5.702;2023-03-11T01:20:03;-0.10;99.90
76787;DHT22;65739;51.482;5.702;2023-03-11T01:22:54;-0.10;99.90
76787;DHT22;65739;51.482;5.702;2023-03-11T01:25:23;-0.10;99.90
76787;DHT22;65739;51.482;5.702;2023-03-11T01:27:49;-0.10;99.90
76787;DHT22;65739;51.482;5.702;2023-03-11T01:30:19;-0.10;99.90
76787;DHT22;65739;51.482;5.702;2023-03-11T01:32:45;-0.20;99.90
76787;DHT22;65739;51.482;5.702;2023-03-11T01:35:16;-0.20;99.90
76787;DHT22;65739;51.482;5.702;2023-03-11T01:37:44;-0.30;99.90
76787;DHT22;65739;51.482;5.702;2023-03-11T01:40:34;-0.30;99.90
76787;DHT22;65739;51.482;5.702;2023-03-11T01:43:02;-0.30;99.90
76787;DHT22;65739;51.482;5.702;2023-03-11T01:48:15;-0.40;99.90
76787;DHT22;65739;51.482;5.702;2023-03-11T01:50:48;-0.50;99.90
76787;DHT22;65739;51.482;5.702;2023-03-11T01:53:25;-0.50;99.90
76787;DHT22;65739;51.482;5.702;2023-03-11T01:56:03;-0.50;99.90
76787;DHT22;65739;51.482;5.702;2023-03-11T01:58:45;-0.60;99.90
76787;DHT22;65739;51.482;5.702;2023-03-11T02:01:21;-0.60;99.90
76787;DHT22;65739;51.482;5.702;2023-03-11T02:03:50;-0.60;99.90
76787;DHT22;65739;51.482;5.702;2023-03-11T02:06:24;-0.60;99.90
76787;DHT22;65739;51.482;5.702;2023-03-11T02:08:53;-0.60;99.90
76787;DHT22;65739;51.482;5.702;2023-03-11T02:11:23;-0.70;99.90
76787;DHT22;65739;51.482;5.702;2023-03-11T02:14:05;-0.70;99.90
76787;DHT22;65739;51.482;5.702;2023-03-11T02:16:32;-0.70;99.90
76787;DHT22;65739;51.482;5.702;2023-03-11T02:19:09;-0.70;99.90
76787;DHT22;65739;51.482;5.702;2023-03-11T02:21:42;-0.60;99.90
76787;DHT22;65739;51.482;5.702;2023-03-11T02:24:46;-0.70;99.90
76787;DHT22;65739;51.482;5.702;2023-03-11T02:27:29;-0.70;99.90
76787;DHT22;65739;51.482;5.702;2023-03-11T02:30:11;-0.80;99.90
76787;DHT22;65739;51.482;5.702;2023-03-11T02:32:51;-0.80;99.90
76787;DHT22;65739;51.482;5.702;2023-03-11T02:35:18;-0.90;99.90
76787;DHT22;65739;51.482;5.702;2023-03-11T02:37:51;-0.90;99.90
76787;DHT22;65739;51.482;5.702;2023-03-11T02:40:59;-0.90;99.90
76787;DHT22;65739;51.482;5.702;2023-03-11T02:43:44;-1.00;99.90
76787;DHT22;65739;51.482;5.702;2023-03-11T02:46:16;-0.90;99.90
76787;DHT22;65739;51.482;5.702;2023-03-11T02:48:53;-1.00;99.90
76787;DHT22;65739;51.482;5.702;2023-03-11T02:51:19;-0.90;99.90
76787;DHT22;65739;51.482;5.702;2023-03-11T02:53:50;-0.90;99.90
76787;DHT22;65739;51.482;5.702;2023-03-11T02:56:37;-1.00;99.90
76787;DHT22;65739;51.482;5.702;2023-03-11T02:59:07;-1.00;99.90
76787;DHT22;65739;51.482;5.702;2023-03-11T03:01:36;-1.00;99.90
76787;DHT22;65739;51.482;5.702;2023-03-11T03:04:07;-1.00;99.90
76787;DHT22;65739;51.482;5.702;2023-03-11T03:06:52;-1.00;99.90
76787;DHT22;65739;51.482;5.702;2023-03-11T03:09:17;-1.00;99.90
76787;DHT22;65739;51.482;5.702;2023-03-11T03:11:49;-1.00;99.90
76787;DHT22;65739;51.482;5.702;2023-03-11T03:14:15;-1.00;99.90
76787;DHT22;65739;51.482;5.702;2023-03-11T03:16:47;-1.10;99.90
76787;DHT22;65739;51.482;5.702;2023-03-11T03:19:21;-1.10;99.90
76787;DHT22;65739;51.482;5.702;2023-03-11T03:22:01;-1.10;99.90
76787;DHT22;65739;51.482;5.702;2023-03-11T03:24:50;-1.10;99.90
76787;DHT22;65739;51.482;5.702;2023-03-11T03:27:17;-1.20;99.90
76787;DHT22;65739;51.482;5.702;2023-03-11T03:29:49;-1.20;99.90
76787;DHT22;65739;51.482;5.702;2023-03-11T03:32:14;-1.20;99.90
76787;DHT22;65739;51.482;5.702;2023-03-11T03:34:52;-1.30;99.90
76787;DHT22;65739;51.482;5.702;2023-03-11T03:37:27;-1.30;99.90
76787;DHT22;65739;51.482;5.702;2023-03-11T03:39:54;-1.30;99.90
76787;DHT22;65739;51.482;5.702;2023-03-11T03:42:20;-1.30;99.90
76787;DHT22;65739;51.482;5.702;2023-03-11T03:44:50;-1.30;99.90
76787;DHT22;65739;51.482;5.702;2023-03-11T03:47:46;-1.40;99.90
76787;DHT22;65739;51.482;5.702;2023-03-11T03:50:39;-1.40;99.90
76787;DHT22;65739;51.482;5.702;2023-03-11T03:53:05;-1.40;99.90
76787;DHT22;65739;51.482;5.702;2023-03-11T03:56:01;-1.50;99.90
76787;DHT22;65739;51.482;5.702;2023-03-11T03:58:52;-1.50;99.90
76787;DHT22;65739;51.482;5.702;2023-03-11T04:01:18;-1.40;99.90
76787;DHT22;65739;51.482;5.702;2023-03-11T04:03:47;-1.50;99.90
76787;DHT22;65739;51.482;5.702;2023-03-11T04:09:43;-1.50;99.90
76787;DHT22;65739;51.482;5.702;2023-03-11T04:12:13;-1.60;99.90
76787;DHT22;65739;51.482;5.702;2023-03-11T04:14:53;-1.60;99.90
76787;DHT22;65739;51.482;5.702;2023-03-11T04:17:21;-1.60;99.90
76787;DHT22;65739;51.482;5.702;2023-03-11T04:19:47;-1.50;99.90
76787;DHT22;65739;51.482;5.702;2023-03-11T04:22:16;-1.60;99.90
76787;DHT22;65739;51.482;5.702;2023-03-11T04:24:47;-1.50;99.90
76787;DHT22;65739;51.482;5.702;2023-03-11T04:27:13;-1.60;99.90
76787;DHT22;65739;51.482;5.702;2023-03-11T04:29:39;-1.60;99.90
76787;DHT22;65739;51.482;5.702;2023-03-11T04:32:05;-1.50;99.90
76787;DHT22;65739;51.482;5.702;2023-03-11T04:34:34;-1.50;99.90
76787;DHT22;65739;51.482;5.702;2023-03-11T04:37:03;-1.60;99.90
76787;DHT22;65739;51.482;5.702;2023-03-11T04:39:31;-1.70;99.90
76787;DHT22;65739;51.482;5.702;2023-03-11T04:42:10;-1.70;99.90
76787;DHT22;65739;51.482;5.702;2023-03-11T04:44:43;-1.70;99.90
76787;DHT22;65739;51.482;5.702;2023-03-11T04:47:12;-1.80;99.90
76787;DHT22;65739;51.482;5.702;2023-03-11T04:50:02;-1.80;99.90
76787;DHT22;65739;51.482;5.702;2023-03-11T04:52:27;-1.80;99.90
76787;DHT22;65739;51.482;5.702;2023-03-11T04:54:59;-1.80;99.90
76787;DHT22;65739;51.482;5.702;2023-03-11T04:57:30;-1.90;99.90
76787;DHT22;65739;51.482;5.702;2023-03-11T05:00:29;-1.90;99.90
76787;DHT22;65739;51.482;5.702;2023-03-11T05:02:58;-1.80;99.90
76787;DHT22;65739;51.482;5.702;2023-03-11T05:05:26;-1.90;99.90
76787;DHT22;65739;51.482;5.702;2023-03-11T05:07:52;-1.90;99.90
76787;DHT22;65739;51.482;5.702;2023-03-11T05:10:21;-1.90;99.90
76787;DHT22;65739;51.482;5.702;2023-03-11T05:12:50;-1.90;99.90
76787;DHT22;65739;51.482;5.702;2023-03-11T05:15:19;-1.90;99.90
76787;DHT22;65739;51.482;5.702;2023-03-11T05:17:53;-1.90;99.90
76787;DHT22;65739;51.482;5.702;2023-03-11T05:20:19;-2.00;99.90
76787;DHT22;65739;51.482;5.702;2023-03-11T05:22:47;-2.00;99.90
76787;DHT22;65739;51.482;5.702;2023-03-11T05:25:12;-2.00;99.90
76787;DHT22;65739;51.482;5.702;2023-03-11T05:27:41;-2.00;99.90
76787;DHT22;65739;51.482;5.702;2023-03-11T05:30:16;-2.00;99.90
76787;DHT22;65739;51.482;5.702;2023-03-11T05:32:42;-2.00;99.90
76787;DHT22;65739;51.482;5.702;2023-03-11T05:35:13;-2.00;99.90
76787;DHT22;65739;51.482;5.702;2023-03-11T05:37:49;-2.00;99.90
76787;DHT22;65739;51.482;5.702;2023-03-11T05:40:16;-2.00;99.90
76787;DHT22;65739;51.482;5.702;2023-03-11T05:42:42;-2.00;99.90
76787;DHT22;65739;51.482;5.702;2023-03-11T05:45:08;-2.10;99.90
76787;DHT22;65739;51.482;5.702;2023-03-11T05:47:34;-2.10;99.90
76787;DHT22;65739;51.482;5.702;2023-03-11T05:50:00;-2.10;99.90
76787;DHT22;65739;51.482;5.702;2023-03-11T05:52:26;-2.10;99.90
76787;DHT22;65739;51.482;5.702;2023-03-11T05:54:51;-2.10;99.90
76787;DHT22;65739;51.482;5.702;2023-03-11T05:57:18;-2.20;99.90
76787;DHT22;65739;51.482;5.702;2023-03-11T05:59:46;-2.20;99.90
76787;DHT22;65739;51.482;5.702;2023-03-11T06:02:15;-2.30;99.90
76787;DHT22;65739;51.482;5.702;2023-03-11T06:04:41;-2.30;99.90
76787;DHT22;65739;51.482;5.702;2023-03-11T06:07:10;-2.30;99.90
76787;DHT22;65739;51.482;5.702;2023-03-11T06:09:40;-2.30;99.90
76787;DHT22;65739;51.482;5.702;2023-03-11T06:12:08;-2.30;99.90
76787;DHT22;65739;51.482;5.702;2023-03-11T06:14:34;-2.30;99.90
76787;DHT22;65739;51.482;5.702;2023-03-11T06:17:23;-2.30;99.90
76787;DHT22;65739;51.482;5.702;2023-03-11T06:20:12;-2.30;99.90
76787;DHT22;65739;51.482;5.702;2023-03-11T06:22:40;-2.30;99.90
76787;DHT22;65739;51.482;5.702;2023-03-11T06:25:12;-2.30;99.90
76787;DHT22;65739;51.482;5.702;2023-03-11T06:27:38;-2.30;99.90
76787;DHT22;65739;51.482;5.702;2023-03-11T06:30:09;-2.30;99.90
76787;DHT22;65739;51.482;5.702;2023-03-11T06:32:36;-2.30;99.90
76787;DHT22;65739;51.482;5.702;2023-03-11T06:35:04;-2.30;99.90
76787;DHT22;65739;51.482;5.702;2023-03-11T06:37:36;-2.30;99.90
76787;DHT22;65739;51.482;5.702;2023-03-11T06:40:12;-2.20;99.90
76787;DHT22;65739;51.482;5.702;2023-03-11T06:42:47;-2.20;99.90
76787;DHT22;65739;51.482;5.702;2023-03-11T06:45:15;-2.10;99.90
76787;DHT22;65739;51.482;5.702;2023-03-11T06:47:41;-2.00;99.90
76787;DHT22;65739;51.482;5.702;2023-03-11T06:50:10;-1.90;99.90
76787;DHT22;65739;51.482;5.702;2023-03-11T06:52:39;-1.90;99.90
76787;DHT22;65739;51.482;5.702;2023-03-11T06:55:10;-1.80;99.90
76787;DHT22;65739;51.482;5.702;2023-03-11T06:57:36;-1.80;99.90
76787;DHT22;65739;51.482;5.702;2023-03-11T07:00:10;-1.70;99.90
76787;DHT22;65739;51.482;5.702;2023-03-11T07:02:39;-1.60;99.90
76787;DHT22;65739;51.482;5.702;2023-03-11T07:05:17;-1.50;99.90
76787;DHT22;65739;51.482;5.702;2023-03-11T07:07:43;-1.40;99.90
76787;DHT22;65739;51.482;5.702;2023-03-11T07:10:19;-1.20;99.90
76787;DHT22;65739;51.482;5.702;2023-03-11T07:16:45;-0.90;99.90
76787;DHT22;65739;51.482;5.702;2023-03-11T07:19:43;-0.70;99.90
76787;DHT22;65739;51.482;5.702;2023-03-11T07:22:26;-0.50;99.90
76787;DHT22;65739;51.482;5.702;2023-03-11T07:25:28;-0.30;99.90
76787;DHT22;65739;51.482;5.702;2023-03-11T07:27:57;-0.30;99.90
76787;DHT22;65739;51.482;5.702;2023-03-11T07:30:55;-0.10;99.90
76787;DHT22;65739;51.482;5.702;2023-03-11T07:33:23;0.00;99.90
76787;DHT22;65739;51.482;5.702;2023-03-11T07:35:52;0.10;99.90
76787;DHT22;65739;51.482;5.702;2023-03-11T07:38:42;0.20;99.90
76787;DHT22;65739;51.482;5.702;2023-03-11T07:41:14;0.20;99.90
76787;DHT22;65739;51.482;5.702;2023-03-11T07:43:58;0.30;99.90
76787;DHT22;65739;51.482;5.702;2023-03-11T07:46:26;0.40;99.90
76787;DHT22;65739;51.482;5.702;2023-03-11T07:49:12;0.50;99.90
76787;DHT22;65739;51.482;5.702;2023-03-11T07:51:55;0.60;99.90
76787;DHT22;65739;51.482;5.702;2023-03-11T07:54:48;0.80;99.90
76787;DHT22;65739;51.482;5.702;2023-03-11T07:57:23;0.80;99.90
76787;DHT22;65739;51.482;5.702;2023-03-11T08:00:00;0.90;99.90
76787;DHT22;65739;51.482;5.702;2023-03-11T08:02:31;1.10;99.90
76787;DHT22;65739;51.482;5.702;2023-03-11T08:05:03;1.20;99.90
76787;DHT22;65739;51.482;5.702;2023-03-11T08:07:32;1.40;99.90
76787;DHT22;65739;51.482;5.702;2023-03-11T08:09:58;1.50;99.90
76787;DHT22;65739;51.482;5.702;2023-03-11T08:12:42;1.70;99.90
76787;DHT22;65739;51.482;5.702;2023-03-11T08:15:23;1.80;99.90
76787;DHT22;65739;51.482;5.702;2023-03-11T08:18:09;1.90;99.90
76787;DHT22;65739;51.482;5.702;2023-03-11T08:20:38;2.10;99.90
76787;DHT22;65739;51.482;5.702;2023-03-11T08:23:07;2.20;99.90
76787;DHT22;65739;51.482;5.702;2023-03-11T08:25:51;2.40;99.90
76787;DHT22;65739;51.482;5.702;2023-03-11T08:28:48;2.50;99.90
76787;DHT22;65739;51.482;5.702;2023-03-11T08:34:50;2.80;99.90
76787;DHT22;65739;51.482;5.702;2023-03-11T08:37:19;3.10;99.90
76787;DHT22;65739;51.482;5.702;2023-03-11T08:39:47;3.30;99.90
76787;DHT22;65739;51.482;5.702;2023-03-11T08:42:40;3.40;99.90
76787;DHT22;65739;51.482;5.702;2023-03-11T08:45:56;3.40;99.90
76787;DHT22;65739;51.482;5.702;2023-03-11T08:48:35;3.70;99.90
76787;DHT22;65739;51.482;5.702;2023-03-11T08:51:12;3.70;99.90
76787;DHT22;65739;51.482;5.702;2023-03-11T08:53:59;3.70;99.90
76787;DHT22;65739;51.482;5.702;2023-03-11T08:56:35;3.70;99.90
76787;DHT22;65739;51.482;5.702;2023-03-11T08:59:03;3.60;99.90
76787;DHT22;65739;51.482;5.702;2023-03-11T09:01:32;3.60;99.90
76787;DHT22;65739;51.482;5.702;2023-03-11T09:07:17;3.80;99.90
76787;DHT22;65739;51.482;5.702;2023-03-11T09:09:48;3.70;99.90
76787;DHT22;65739;51.482;5.702;2023-03-11T09:12:17;3.90;99.90
76787;DHT22;65739;51.482;5.702;2023-03-11T09:15:12;4.10;99.90
76787;DHT22;65739;51.482;5.702;2023-03-11T09:17:51;4.10;99.90
76787;DHT22;65739;51.482;5.702;2023-03-11T09:23:36;4.30;99.90
76787;DHT22;65739;51.482;5.702;2023-03-11T09:26:05;4.40;99.90
76787;DHT22;65739;51.482;5.702;2023-03-11T09:28:33;4.60;99.90
76787;DHT22;65739;51.482;5.702;2023-03-11T09:31:28;4.70;99.90
76787;DHT22;65739;51.482;5.702;2023-03-11T09:33:57;4.80;99.90
76787;DHT22;65739;51.482;5.702;2023-03-11T09:36:53;4.90;99.90
76787;DHT22;65739;51.482;5.702;2023-03-11T09:39:19;4.90;99.90
76787;DHT22;65739;51.482;5.702;2023-03-11T09:41:55;5.10;99.90
76787;DHT22;65739;51.482;5.702;2023-03-11T09:47:22;5.30;99.90
76787;DHT22;65739;51.482;5.702;2023-03-11T09:53:43;5.50;99.90
76787;DHT22;65739;51.482;5.702;2023-03-11T09:56:15;5.70;99.90
76787;DHT22;65739;51.482;5.702;2023-03-11T09:58:55;5.90;99.90
76787;DHT22;65739;51.482;5.702;2023-03-11T10:01:29;6.10;99.90
76787;DHT22;65739;51.482;5.702;2023-03-11T10:04:24;5.90;99.90
76787;DHT22;65739;51.482;5.702;2023-03-11T10:06:48;6.00;99.90
76787;DHT22;65739;51.482;5.702;2023-03-11T10:09:36;6.20;99.90
76787;DHT22;65739;51.482;5.702;2023-03-11T10:15:18;6.50;99.90
76787;DHT22;65739;51.482;5.702;2023-03-11T10:20:59;6.40;99.90
76787;DHT22;65739;51.482;5.702;2023-03-11T10:26:12;6.30;99.90
76787;DHT22;65739;51.482;5.702;2023-03-11T10:28:43;6.10;99.90
76787;DHT22;65739;51.482;5.702;2023-03-11T10:31:29;5.70;99.90
76787;DHT22;65739;51.482;5.702;2023-03-11T10:34:12;5.80;99.90
76787;DHT22;65739;51.482;5.702;2023-03-11T10:37:28;5.90;99.90
76787;DHT22;65739;51.482;5.702;2023-03-11T10:39:34;5.90;99.90
76787;DHT22;65739;51.482;5.702;2023-03-11T10:42:04;6.00;99.90
76787;DHT22;65739;51.482;5.702;2023-03-11T10:44:37;6.20;99.90
76787;DHT22;65739;51.482;5.702;2023-03-11T10:47:04;6.50;99.90
76787;DHT22;65739;51.482;5.702;2023-03-11T10:49:30;6.70;99.90
76787;DHT22;65739;51.482;5.702;2023-03-11T10:51:56;6.50;99.90
76787;DHT22;65739;51.482;5.702;2023-03-11T10:54:34;6.50;99.90
76787;DHT22;65739;51.482;5.702;2023-03-11T10:57:04;6.80;99.90
76787;DHT22;65739;51.482;5.702;2023-03-11T10:59:45;7.30;99.90
76787;DHT22;65739;51.482;5.702;2023-03-11T11:07:30;6.70;99.90
76787;DHT22;65739;51.482;5.702;2023-03-11T11:10:13;6.80;99.90
76787;DHT22;65739;51.482;5.702;2023-03-11T11:15:25;7.60;99.90
76787;DHT22;65739;51.482;5.702;2023-03-11T11:18:13;8.20;99.90
76787;DHT22;65739;51.482;5.702;2023-03-11T11:26:24;7.80;99.90
76787;DHT22;65739;51.482;5.702;2023-03-11T11:31:38;7.80;99.90
76787;DHT22;65739;51.482;5.702;2023-03-11T11:34:29;8.00;99.90
76787;DHT22;65739;51.482;5.702;2023-03-11T11:37:00;7.90;99.90
76787;DHT22;65739;51.482;5.702;2023-03-11T11:39:29;8.10;99.90
76787;DHT22;65739;51.482;5.702;2023-03-11T11:41:56;8.00;99.90
76787;DHT22;65739;51.482;5.702;2023-03-11T11:44:33;7.80;99.90
76787;DHT22;65739;51.482;5.702;2023-03-11T11:47:14;7.90;99.90
76787;DHT22;65739;51.482;5.702;2023-03-11T11:49:48;7.90;99.90
76787;DHT22;65739;51.482;5.702;2023-03-11T11:52:23;8.20;99.90
76787;DHT22;65739;51.482;5.702;2023-03-11T11:55:03;8.00;99.90
76787;DHT22;65739;51.482;5.702;2023-03-11T11:57:29;8.00;99.90
76787;DHT22;65739;51.482;5.702;2023-03-11T11:59:56;7.70;99.90
76787;DHT22;65739;51.482;5.702;2023-03-11T12:02:38;8.00;99.90
76787;DHT22;65739;51.482;5.702;2023-03-11T12:05:34;7.80;99.90
76787;DHT22;65739;51.482;5.702;2023-03-11T12:08:32;7.70;99.90
76787;DHT22;65739;51.482;5.702;2023-03-11T12:11:10;7.50;99.90
76787;DHT22;65739;51.482;5.702;2023-03-11T12:16:23;7.70;99.90
76787;DHT22;65739;51.482;5.702;2023-03-11T12:22:08;7.90;99.90
76787;DHT22;65739;51.482;5.702;2023-03-11T12:27:56;8.10;99.90
76787;DHT22;65739;51.482;5.702;2023-03-11T12:30:26;8.20;99.90
76787;DHT22;65739;51.482;5.702;2023-03-11T12:33:02;8.40;99.90
76787;DHT22;65739;51.482;5.702;2023-03-11T12:35:33;8.70;99.90
76787;DHT22;65739;51.482;5.702;2023-03-11T12:40:47;8.80;99.90
76787;DHT22;65739;51.482;5.702;2023-03-11T12:43:27;9.10;99.90
76787;DHT22;65739;51.482;5.702;2023-03-11T12:46:15;9.10;99.90
76787;DHT22;65739;51.482;5.702;2023-03-11T12:48:49;9.00;99.90
76787;DHT22;65739;51.482;5.702;2023-03-11T12:53:56;9.20;99.90
76787;DHT22;65739;51.482;5.702;2023-03-11T12:56:41;9.70;99.90
76787;DHT22;65739;51.482;5.702;2023-03-11T13:05:26;9.80;99.90
76787;DHT22;65739;51.482;5.702;2023-03-11T13:08:07;9.90;99.90
76787;DHT22;65739;51.482;5.702;2023-03-11T13:10:38;9.20;99.90
76787;DHT22;65739;51.482;5.702;2023-03-11T13:15:50;9.40;99.90
76787;DHT22;65739;51.482;5.702;2023-03-11T13:18:23;10.00;99.90
76787;DHT22;65739;51.482;5.702;2023-03-11T13:23:22;9.40;99.90
76787;DHT22;65739;51.482;5.702;2023-03-11T13:33:54;9.30;99.60
76787;DHT22;65739;51.482;5.702;2023-03-11T13:36:43;9.20;99.90
76787;DHT22;65739;51.482;5.702;2023-03-11T13:41:40;9.60;99.90
76787;DHT22;65739;51.482;5.702;2023-03-11T13:44:23;9.80;99.80
76787;DHT22;65739;51.482;5.702;2023-03-11T13:47:09;9.60;99.90
76787;DHT22;65739;51.482;5.702;2023-03-11T13:52:46;9.60;99.90
76787;DHT22;65739;51.482;5.702;2023-03-11T13:55:15;9.70;98.80
76787;DHT22;65739;51.482;5.702;2023-03-11T13:57:53;9.70;99.90
76787;DHT22;65739;51.482;5.702;2023-03-11T14:00:24;9.40;99.90
76787;DHT22;65739;51.482;5.702;2023-03-11T14:02:55;9.40;99.90
76787;DHT22;65739;51.482;5.702;2023-03-11T14:05:25;9.60;99.90
76787;DHT22;65739;51.482;5.702;2023-03-11T14:07:51;9.30;99.90
76787;DHT22;65739;51.482;5.702;2023-03-11T14:10:24;9.30;99.40
76787;DHT22;65739;51.482;5.702;2023-03-11T14:12:51;9.30;99.50
76787;DHT22;65739;51.482;5.702;2023-03-11T14:15:24;9.60;99.90
76787;DHT22;65739;51.482;5.702;2023-03-11T14:17:52;9.50;99.10
76787;DHT22;65739;51.482;5.702;2023-03-11T14:20:20;9.10;99.90
76787;DHT22;65739;51.482;5.702;2023-03-11T14:22:49;9.20;99.00
76787;DHT22;65739;51.482;5.702;2023-03-11T14:25:18;9.10;99.90
76787;DHT22;65739;51.482;5.702;2023-03-11T14:27:50;9.20;99.50
76787;DHT22;65739;51.482;5.702;2023-03-11T14:30:22;9.20;99.20
76787;DHT22;65739;51.482;5.702;2023-03-11T14:33:14;9.50;99.80
76787;DHT22;65739;51.482;5.702;2023-03-11T14:35:54;9.70;99.90
76787;DHT22;65739;51.482;5.702;2023-03-11T14:38:25;10.00;99.90
76787;DHT22;65739;51.482;5.702;2023-03-11T14:40:55;9.90;99.90
76787;DHT22;65739;51.482;5.702;2023-03-11T14:43:21;10.00;99.90
76787;DHT22;65739;51.482;5.702;2023-03-11T14:45:48;9.70;99.90
76787;DHT22;65739;51.482;5.702;2023-03-11T14:48:23;9.60;99.90
76787;DHT22;65739;51.482;5.702;2023-03-11T14:50:50;9.50;99.90
76787;DHT22;65739;51.482;5.702;2023-03-11T14:53:18;9.60;99.50
76787;DHT22;65739;51.482;5.702;2023-03-11T14:55:54;9.70;99.60
76787;DHT22;65739;51.482;5.702;2023-03-11T14:58:33;9.80;99.80
76787;DHT22;65739;51.482;5.702;2023-03-11T15:03:34;9.10;99.90
76787;DHT22;65739;51.482;5.702;2023-03-11T15:06:17;9.00;99.90
76787;DHT22;65739;51.482;5.702;2023-03-11T15:08:45;9.00;99.90
76787;DHT22;65739;51.482;5.702;2023-03-11T15:13:39;9.00;99.90
76787;DHT22;65739;51.482;5.702;2023-03-11T15:16:20;8.90;99.90
76787;DHT22;65739;51.482;5.702;2023-03-11T15:18:46;8.80;99.90
76787;DHT22;65739;51.482;5.702;2023-03-11T15:21:18;9.30;99.90
76787;DHT22;65739;51.482;5.702;2023-03-11T15:24:01;9.50;99.90
76787;DHT22;65739;51.482;5.702;2023-03-11T15:26:31;9.40;99.90
76787;DHT22;65739;51.482;5.702;2023-03-11T15:29:02;9.40;99.90
76787;DHT22;65739;51.482;5.702;2023-03-11T15:31:31;9.50;99.90
76787;DHT22;65739;51.482;5.702;2023-03-11T15:44:28;9.70;99.90
76787;DHT22;65739;51.482;5.702;2023-03-11T15:46:55;9.70;99.90
76787;DHT22;65739;51.482;5.702;2023-03-11T15:49:21;9.60;99.90
76787;DHT22;65739;51.482;5.702;2023-03-11T15:51:47;10.10;99.90
76787;DHT22;65739;51.482;5.702;2023-03-11T15:54:12;10.30;99.90
76787;DHT22;65739;51.482;5.702;2023-03-11T15:56:39;10.50;99.90
76787;DHT22;65739;51.482;5.702;2023-03-11T15:59:05;10.50;99.90
76787;DHT22;65739;51.482;5.702;2023-03-11T16:01:30;10.70;99.90
76787;DHT22;65739;51.482;5.702;2023-03-11T16:03:56;10.90;99.90
76787;DHT22;65739;51.482;5.702;2023-03-11T16:06:22;10.80;99.90
76787;DHT22;65739;51.482;5.702;2023-03-11T16:08:48;10.30;99.90
76787;DHT22;65739;51.482;5.702;2023-03-11T16:11:13;10.20;99.90
76787;DHT22;65739;51.482;5.702;2023-03-11T16:13:39;10.40;99.90
76787;DHT22;65739;51.482;5.702;2023-03-11T16:16:05;10.30;99.90
76787;DHT22;65739;51.482;5.702;2023-03-11T16:18:31;10.20;99.90
76787;DHT22;65739;51.482;5.702;2023-03-11T16:20:58;10.10;99.90
76787;DHT22;65739;51.482;5.702;2023-03-11T16:23:26;10.20;99.90
76787;DHT22;65739;51.482;5.702;2023-03-11T16:26:02;10.50;99.90
76787;DHT22;65739;51.482;5.702;2023-03-11T16:28:28;10.50;99.90
76787;DHT22;65739;51.482;5.702;2023-03-11T16:30:53;9.70;99.40
76787;DHT22;65739;51.482;5.702;2023-03-11T16:33:19;9.00;99.90
76787;DHT22;65739;51.482;5.702;2023-03-11T16:35:45;8.60;99.90
76787;DHT22;65739;51.482;5.702;2023-03-11T16:38:11;8.30;99.90
76787;DHT22;65739;51.482;5.702;2023-03-11T16:40:36;8.50;99.90
76787;DHT22;65739;51.482;5.702;2023-03-11T16:43:07;8.80;99.90
76787;DHT22;65739;51.482;5.702;2023-03-11T16:45:34;8.90;99.90
76787;DHT22;65739;51.482;5.702;2023-03-11T16:48:00;8.90;99.90
76787;DHT22;65739;51.482;5.702;2023-03-11T16:50:26;8.70;99.90
76787;DHT22;65739;51.482;5.702;2023-03-11T16:52:55;8.60;99.90
76787;DHT22;65739;51.482;5.702;2023-03-11T16:55:23;8.10;99.90
76787;DHT22;65739;51.482;5.702;2023-03-11T16:57:49;7.60;99.90
76787;DHT22;65739;51.482;5.702;2023-03-11T17:00:15;7.10;99.90
76787;DHT22;65739;51.482;5.702;2023-03-11T17:02:43;6.70;99.90
76787;DHT22;65739;51.482;5.702;2023-03-11T17:05:09;6.40;99.90
76787;DHT22;65739;51.482;5.702;2023-03-11T17:07:35;6.20;99.90
76787;DHT22;65739;51.482;5.702;2023-03-11T17:10:02;5.90;99.90
76787;DHT22;65739;51.482;5.702;2023-03-11T17:12:28;5.60;99.90
76787;DHT22;65739;51.482;5.702;2023-03-11T17:14:54;5.40;99.90
76787;DHT22;65739;51.482;5.702;2023-03-11T17:17:20;5.20;99.90
76787;DHT22;65739;51.482;5.702;2023-03-11T17:19:46;5.00;99.90
76787;DHT22;65739;51.482;5.702;2023-03-11T17:22:15;4.90;99.90
76787;DHT22;65739;51.482;5.702;2023-03-11T17:24:44;4.60;99.90
76787;DHT22;65739;51.482;5.702;2023-03-11T17:27:09;4.50;99.90
76787;DHT22;65739;51.482;5.702;2023-03-11T17:29:41;4.40;99.90
76787;DHT22;65739;51.482;5.702;2023-03-11T17:32:12;4.20;99.90
76787;DHT22;65739;51.482;5.702;2023-03-11T17:35:03;4.10;99.90
76787;DHT22;65739;51.482;5.702;2023-03-11T17:37:50;3.90;99.90
76787;DHT22;65739;51.482;5.702;2023-03-11T17:40:27;3.80;99.90
76787;DHT22;65739;51.482;5.702;2023-03-11T17:43:03;3.60;99.90
76787;DHT22;65739;51.482;5.702;2023-03-11T17:46:23;3.50;99.90
76787;DHT22;65739;51.482;5.702;2023-03-11T17:48:32;3.40;99.90
76787;DHT22;65739;51.482;5.702;2023-03-11T17:51:14;3.20;99.90
76787;DHT22;65739;51.482;5.702;2023-03-11T17:53:56;3.10;99.90
76787;DHT22;65739;51.482;5.702;2023-03-11T17:56:34;3.00;99.90
76787;DHT22;65739;51.482;5.702;2023-03-11T17:59:02;2.90;99.90
76787;DHT22;65739;51.482;5.702;2023-03-11T18:01:28;2.80;99.90
76787;DHT22;65739;51.482;5.702;2023-03-11T18:04:05;2.80;99.90
76787;DHT22;65739;51.482;5.702;2023-03-11T18:06:31;2.70;99.90